Time;durP1;ratioP1;P1;durP2;ratioP2;P2;SDS_P1;SDS_P2;PMS_P1;PMS_P2;Temp;Humidity;BMP_temperature;BMP_pressure;BME280_temperature;BME280_humidity;BME280_pressure;Samples;Min_cycle;Max_cycle;Signal;HPM_P1;HPM_P2
2024/01/03 00:00:27;;;;;;;2.63;0.93;;;;;;;19.77;49.17;98595.81;5009245;28;99780;-75
2024/01/03 00:02:53;;;;;;;3.58;0.90;;;;;;;19.78;48.97;98571.03;5009138;28;97206;-75
2024/01/03 00:05:23;;;;;;;1.67;0.50;;;;;;;19.78;49.26;98578.97;5011715;28;98869;-75
2024/01/03 00:07:49;;;;;;;2.22;0.60;;;;;;;19.80;48.98;98592.13;5009502;28;97436;-76
2024/01/03 00:10:40;;;;;;;2.22;0.60;;;;;;;19.79;49.02;98601.84;4993486;28;99603;-75
2024/01/03 00:13:46;;;;;;;3.22;0.80;;;;;;;19.74;48.90;98585.41;5011566;28;96682;-76
2024/01/03 00:16:18;;;;;;;2.55;0.90;;;;;;;19.77;48.73;98587.88;5011112;28;98205;-76
2024/01/03 00:18:51;;;;;;;3.50;0.85;;;;;;;19.78;48.80;98587.75;5010206;28;97520;-76
2024/01/03 00:21:22;;;;;;;3.53;0.60;;;;;;;19.77;48.92;98590.53;5009752;28;96812;-75
2024/01/03 00:23:50;;;;;;;2.10;0.70;;;;;;;19.78;48.66;98600.97;4992572;28;96743;-75
2024/01/03 00:26:16;;;;;;;2.47;0.73;;;;;;;19.80;48.75;98608.81;5011462;28;97039;-76
2024/01/03 00:28:42;;;;;;;1.90;0.60;;;;;;;19.84;48.42;98605.06;5009496;28;99549;-75
2024/01/03 00:31:38;;;;;;;3.55;0.85;;;;;;;19.82;48.49;98606.97;4992833;28;99535;-76
2024/01/03 00:34:22;;;;;;;5.35;0.93;;;;;;;19.83;48.48;98611.28;5004015;28;97155;-76
2024/01/03 00:36:51;;;;;;;2.75;0.55;;;;;;;19.84;48.89;98620.06;5011630;28;97183;-75
2024/01/03 00:39:25;;;;;;;2.15;0.63;;;;;;;19.80;48.72;98624.69;4994325;28;99610;-75
2024/01/03 00:41:50;;;;;;;2.40;0.70;;;;;;;19.82;48.43;98630.78;5007085;28;97451;-75
2024/01/03 00:44:15;;;;;;;1.95;0.73;;;;;;;19.81;48.79;98621.13;5009093;28;97181;-76
2024/01/03 00:46:43;;;;;;;2.75;0.93;;;;;;;19.80;48.86;98618.56;5011711;28;97569;-76
2024/01/03 00:49:09;;;;;;;2.65;0.70;;;;;;;19.81;48.76;98634.34;5002634;28;96831;-76
2024/01/03 00:51:34;;;;;;;1.60;0.90;;;;;;;19.81;48.46;98633.50;5012071;28;98262;-76
2024/01/03 00:54:00;;;;;;;3.72;0.88;;;;;;;19.80;48.57;98627.34;5010161;28;98417;-76
2024/01/03 00:56:27;;;;;;;3.88;0.80;;;;;;;19.80;48.53;98632.63;5011926;27;97385;-76
2024/01/03 00:58:53;;;;;;;3.03;0.65;;;;;;;19.81;48.71;98639.63;4987431;28;97693;-76
2024/01/03 01:01:19;;;;;;;1.85;0.60;;;;;;;19.82;48.64;98656.34;5007825;28;96787;-76
2024/01/03 01:03:44;;;;;;;2.70;0.70;;;;;;;19.82;48.59;98646.66;4992265;28;96766;-76
2024/01/03 01:06:10;;;;;;;2.22;0.60;;;;;;;19.83;48.18;98658.06;5009056;28;97002;-76
2024/01/03 01:08:35;;;;;;;2.60;0.52;;;;;;;19.83;48.31;98652.78;5008493;28;97622;-75
2024/01/03 01:11:01;;;;;;;3.35;0.70;;;;;;;19.82;48.24;98657.22;4992404;28;100095;-76
2024/01/03 01:13:26;;;;;;;3.03;0.80;;;;;;;19.84;48.53;98663.28;5008659;28;97420;-76
2024/01/03 01:15:51;;;;;;;2.95;0.90;;;;;;;19.84;48.33;98663.28;5002718;28;97130;-75
2024/01/03 01:18:17;;;;;;;1.92;0.65;;;;;;;19.85;48.38;98672.06;4998086;28;127975;-76
2024/01/03 01:20:42;;;;;;;2.15;0.80;;;;;;;19.83;48.12;98680.06;5004781;28;130335;-75
2024/01/03 01:23:07;;;;;;;3.50;0.93;;;;;;;19.84;48.07;98671.22;5008578;28;96859;-76
2024/01/03 01:25:33;;;;;;;2.70;0.52;;;;;;;19.85;48.76;98674.69;5010153;28;96809;-75
2024/01/03 01:27:58;;;;;;;1.95;0.55;;;;;;;19.85;48.40;98686.13;5007555;28;97520;-75
2024/01/03 01:30:23;;;;;;;3.00;0.60;;;;;;;19.84;48.22;98688.84;5007259;28;117546;-75
2024/01/03 01:32:50;;;;;;;3.25;0.60;;;;;;;19.83;48.12;98687.16;5008252;28;117777;-76
2024/01/03 01:35:17;;;;;;;3.42;0.70;;;;;;;19.80;48.22;98690.84;4993791;28;97052;-76
2024/01/03 01:37:43;;;;;;;3.35;0.70;;;;;;;19.83;48.26;98685.38;5001911;28;98226;-76
2024/01/03 01:40:09;;;;;;;3.17;0.75;;;;;;;19.84;47.90;98695.00;5007752;28;98096;-75
2024/01/03 01:42:35;;;;;;;3.22;0.70;;;;;;;19.84;48.19;98713.53;5005770;28;96817;-76
2024/01/03 01:45:01;;;;;;;1.98;0.55;;;;;;;19.86;48.27;98700.22;4994351;28;97086;-76
2024/01/03 01:47:26;;;;;;;2.30;0.73;;;;;;;19.84;48.26;98708.25;4993639;28;98714;-76
2024/01/03 01:49:52;;;;;;;2.95;0.77;;;;;;;19.85;48.12;98704.63;5007969;28;100400;-76
2024/01/03 01:52:19;;;;;;;4.03;0.90;;;;;;;19.84;48.12;98702.06;5007026;28;97839;-75
2024/01/03 01:54:45;;;;;;;2.00;0.60;;;;;;;19.84;48.17;98710.88;5009610;28;97083;-76
2024/01/03 01:57:11;;;;;;;3.10;0.80;;;;;;;19.85;48.05;98717.88;4995207;28;99190;-76
2024/01/03 01:59:38;;;;;;;2.63;0.60;;;;;;;19.86;48.05;98724.03;4997658;27;99326;-76
2024/01/03 02:02:04;;;;;;;3.42;0.70;;;;;;;19.86;47.92;98719.56;5003618;28;97048;-76
2024/01/03 02:04:32;;;;;;;3.72;0.82;;;;;;;19.87;47.76;98723.06;5000021;28;96849;-76
2024/01/03 02:06:57;;;;;;;2.90;0.80;;;;;;;19.84;48.17;98731.19;5006627;28;97998;-75
2024/01/03 02:09:23;;;;;;;3.92;0.82;;;;;;;19.84;48.13;98729.41;5007698;28;96833;-75
2024/01/03 02:11:48;;;;;;;3.10;0.70;;;;;;;19.85;48.05;98732.91;4990922;28;97168;-75
2024/01/03 02:14:13;;;;;;;2.17;0.68;;;;;;;19.86;47.89;98727.53;4985150;28;117757;-76
2024/01/03 02:16:39;;;;;;;3.75;1.00;;;;;;;19.85;48.07;98739.03;4995416;28;97674;-76
2024/01/03 02:19:04;;;;;;;3.83;0.90;;;;;;;19.85;47.76;98741.66;5003932;28;96986;-75
2024/01/03 02:21:30;;;;;;;2.85;0.73;;;;;;;19.85;47.76;98733.75;5011292;28;116644;-76
2024/01/03 02:23:56;;;;;;;4.63;0.80;;;;;;;19.85;47.75;98739.03;4992709;28;97319;-76
2024/01/03 02:26:21;;;;;;;2.47;0.60;;;;;;;19.88;47.66;98744.16;5010638;28;99687;-76
2024/01/03 02:28:46;;;;;;;2.13;0.65;;;;;;;19.88;47.74;98744.16;5012984;28;97346;-76
2024/01/03 02:31:12;;;;;;;2.60;0.82;;;;;;;19.86;47.88;98740.75;5017647;28;96701;-76
2024/01/03 02:33:37;;;;;;;3.45;0.70;;;;;;;19.88;47.92;98746.78;5018863;27;111947;-76
2024/01/03 02:36:03;;;;;;;1.88;0.50;;;;;;;19.87;47.72;98758.31;5022747;28;117407;-76
2024/01/03 02:38:28;;;;;;;2.95;0.80;;;;;;;19.85;47.71;98749.59;5013563;27;97190;-76
2024/01/03 02:40:54;;;;;;;3.13;0.70;;;;;;;19.85;47.77;98751.41;5005760;28;117718;-76
2024/01/03 02:43:19;;;;;;;2.47;0.68;;;;;;;19.83;47.80;98756.78;5018079;28;96753;-76
2024/01/03 02:45:44;;;;;;;3.15;0.85;;;;;;;19.86;47.85;98751.31;5021040;28;124848;-76
2024/01/03 02:48:11;;;;;;;2.95;1.00;;;;;;;19.87;47.78;98752.16;5019071;28;97173;-76
2024/01/03 02:50:36;;;;;;;3.40;0.82;;;;;;;19.87;47.62;98755.66;5028150;28;96714;-76
2024/01/03 02:53:02;;;;;;;3.00;1.08;;;;;;;19.86;47.68;98756.63;5022235;27;116613;-76
2024/01/03 02:55:27;;;;;;;3.20;0.93;;;;;;;19.86;47.83;98766.34;5020449;27;97558;-75
2024/01/03 02:57:53;;;;;;;3.72;0.70;;;;;;;19.87;47.90;98762.75;5020641;27;96865;-75
2024/01/03 03:00:19;;;;;;;3.03;0.73;;;;;;;19.86;47.84;98761.06;5016678;27;97021;-76
2024/01/03 03:02:44;;;;;;;3.53;1.02;;;;;;;19.88;47.73;98764.47;5012010;28;96988;-76
2024/01/03 03:05:09;;;;;;;3.10;0.80;;;;;;;19.85;47.70;98776.06;5011781;28;97832;-76
2024/01/03 03:07:35;;;;;;;2.97;0.98;;;;;;;19.86;48.04;98772.50;4993016;28;126412;-76
2024/01/03 03:10:00;;;;;;;3.20;0.82;;;;;;;19.87;47.91;98773.34;5011107;28;97370;-75
2024/01/03 03:12:26;;;;;;;2.60;0.82;;;;;;;19.87;47.56;98784.75;4994353;28;96962;-76
2024/01/03 03:14:51;;;;;;;3.53;0.80;;;;;;;19.88;47.69;98783.00;5007486;28;96795;-76
2024/01/03 03:17:17;;;;;;;2.88;0.90;;;;;;;19.89;47.76;98776.72;5005687;28;122202;-76
2024/01/03 03:19:43;;;;;;;2.20;0.70;;;;;;;19.88;47.63;98785.63;5010332;28;97125;-76
2024/01/03 03:22:08;;;;;;;2.97;0.73;;;;;;;19.87;47.55;98782.13;5009660;28;96811;-76
2024/01/03 03:24:34;;;;;;;2.88;0.65;;;;;;;19.87;47.81;98779.47;4993462;28;99504;-76
2024/01/03 03:26:59;;;;;;;4.22;1.10;;;;;;;19.89;47.66;98772.31;5011948;28;97252;-76
2024/01/03 03:29:24;;;;;;;2.58;0.80;;;;;;;19.87;47.54;98782.13;5010203;28;115189;-76
2024/01/03 03:31:50;;;;;;;3.38;0.80;;;;;;;19.88;47.78;98788.28;4990346;28;97113;-76
2024/01/03 03:34:18;;;;;;;3.30;0.75;;;;;;;19.88;47.80;98791.75;4999785;28;125619;-76
2024/01/03 03:36:44;;;;;;;2.35;0.90;;;;;;;19.88;47.53;98794.41;5008859;28;97378;-76
2024/01/03 03:39:10;;;;;;;3.00;0.90;;;;;;;19.89;47.77;98792.59;5015778;28;96874;-76
2024/01/03 03:41:37;;;;;;;2.58;0.80;;;;;;;19.89;47.75;98798.78;5011222;28;97365;-75
2024/01/03 03:44:02;;;;;;;2.80;0.85;;;;;;;19.89;47.56;98801.41;5010260;28;99983;-76
2024/01/03 03:46:28;;;;;;;3.30;0.75;;;;;;;19.88;47.39;98788.28;5010759;28;97207;-76
2024/01/03 03:48:53;;;;;;;4.80;1.00;;;;;;;19.88;47.39;98799.69;4993252;28;96753;-76
2024/01/03 03:51:19;;;;;;;3.72;1.02;;;;;;;19.87;47.56;98794.50;5013145;28;96965;-76
2024/01/03 03:53:44;;;;;;;3.55;1.00;;;;;;;19.87;47.64;98800.63;5010670;28;98072;-76
2024/01/03 03:56:09;;;;;;;3.33;0.90;;;;;;;19.90;47.41;98802.25;5010600;28;96791;-76
2024/01/03 03:58:35;;;;;;;4.00;0.73;;;;;;;19.90;47.52;98811.03;5009360;28;117078;-76
2024/01/03 04:01:00;;;;;;;2.22;0.60;;;;;;;19.89;47.75;98812.00;5005346;28;96739;-76
2024/01/03 04:03:25;;;;;;;4.85;0.80;;;;;;;19.90;47.52;98804.91;5007853;28;97452;-76
2024/01/03 04:05:51;;;;;;;2.83;0.90;;;;;;;19.89;47.35;98804.06;5017263;28;116943;-76
2024/01/03 04:08:16;;;;;;;3.53;0.75;;;;;;;19.90;47.51;98813.69;5012298;28;96967;-75
2024/01/03 04:10:41;;;;;;;3.47;0.98;;;;;;;19.90;47.55;98810.19;5012960;28;117718;-76
2024/01/03 04:13:07;;;;;;;4.18;0.90;;;;;;;19.91;47.76;98827.75;5010872;28;97651;-75
2024/01/03 04:15:32;;;;;;;4.40;0.85;;;;;;;19.89;47.59;98827.00;5008001;27;97433;-76
2024/01/03 04:17:58;;;;;;;3.50;0.85;;;;;;;19.90;47.72;98816.34;5013650;28;96837;-76
2024/01/03 04:20:23;;;;;;;3.00;0.63;;;;;;;19.89;47.46;98822.59;5010030;28;102603;-76
2024/01/03 04:22:49;;;;;;;3.13;0.90;;;;;;;19.90;47.53;98826.06;5009177;28;97353;-76
2024/01/03 04:25:14;;;;;;;5.70;0.98;;;;;;;19.90;47.76;98826.91;5011254;28;97433;-76
2024/01/03 04:27:39;;;;;;;3.53;0.85;;;;;;;19.92;47.84;98817.09;5010104;28;96745;-76
2024/01/03 04:30:06;;;;;;;2.53;1.05;;;;;;;19.92;47.73;98832.13;5012084;28;96789;-75
2024/01/03 04:32:31;;;;;;;2.78;0.80;;;;;;;19.91;47.78;98818.06;5010473;28;96872;-75
2024/01/03 04:34:57;;;;;;;3.20;0.60;;;;;;;19.90;47.51;98829.56;5010234;28;96726;-75
2024/01/03 04:37:22;;;;;;;3.60;0.90;;;;;;;19.90;47.68;98826.06;5010138;28;101914;-75
2024/01/03 04:39:48;;;;;;;5.15;0.80;;;;;;;19.90;47.75;98836.66;5006457;28;96920;-74
2024/01/03 04:42:13;;;;;;;4.05;0.90;;;;;;;19.89;47.74;98846.41;5003457;28;127272;-75
2024/01/03 04:44:40;;;;;;;3.13;0.90;;;;;;;19.91;47.69;98830.41;4993520;28;97430;-75
2024/01/03 04:47:05;;;;;;;3.05;0.70;;;;;;;19.90;47.39;98834.84;5011959;28;96635;-75
2024/01/03 04:49:31;;;;;;;2.58;0.82;;;;;;;19.89;47.86;98829.66;5013707;28;97107;-74
2024/01/03 04:51:56;;;;;;;3.80;0.95;;;;;;;19.91;47.66;98833.06;5010995;28;97339;-75
2024/01/03 04:54:21;;;;;;;3.50;0.80;;;;;;;19.89;47.54;98830.53;5013752;28;97272;-75
2024/01/03 04:56:47;;;;;;;2.10;0.73;;;;;;;19.90;47.69;98829.56;5012618;28;96698;-75
2024/01/03 04:59:12;;;;;;;3.88;1.00;;;;;;;19.90;48.13;98836.66;4994855;28;98521;-76
2024/01/03 05:01:39;;;;;;;3.15;0.80;;;;;;;19.92;47.47;98825.03;5021004;28;123107;-75
2024/01/03 05:04:05;;;;;;;3.55;0.80;;;;;;;19.93;47.56;98832.03;5008631;28;98560;-75
2024/01/03 05:06:30;;;;;;;3.08;0.80;;;;;;;19.91;47.81;98831.28;5010495;28;97284;-76
2024/01/03 05:08:55;;;;;;;3.65;0.68;;;;;;;19.88;47.56;98836.75;5009967;28;97242;-76
2024/01/03 05:11:21;;;;;;;3.92;0.93;;;;;;;19.88;47.75;98834.09;5007208;28;126832;-75
2024/01/03 05:13:46;;;;;;;4.13;0.93;;;;;;;19.90;47.76;98836.66;5008842;28;98203;-75
2024/01/03 05:16:12;;;;;;;2.50;0.60;;;;;;;19.90;47.45;98836.66;5001543;28;96848;-75
2024/01/03 05:18:37;;;;;;;2.08;0.80;;;;;;;19.88;47.51;98843.84;5007806;28;97275;-75
2024/01/03 05:21:05;;;;;;;2.95;0.73;;;;;;;19.88;47.87;98836.75;4990628;28;126661;-75
2024/01/03 05:23:30;;;;;;;2.85;0.75;;;;;;;19.87;47.84;98842.97;4988824;28;99795;-75
2024/01/03 05:25:56;;;;;;;3.20;0.90;;;;;;;19.89;47.81;98849.03;5010175;28;96644;-76
2024/01/03 05:28:21;;;;;;;3.08;0.90;;;;;;;19.89;47.75;98845.53;5009629;28;96758;-75
2024/01/03 05:30:46;;;;;;;2.92;0.63;;;;;;;19.90;47.80;98848.09;5009174;28;126472;-76
2024/01/03 05:33:12;;;;;;;3.10;1.10;;;;;;;19.91;47.53;98852.44;5008525;28;97950;-75
2024/01/03 05:35:37;;;;;;;3.50;0.70;;;;;;;19.90;47.61;98858.66;5008985;28;96921;-76
2024/01/03 05:38:03;;;;;;;4.45;0.98;;;;;;;19.90;47.81;98847.25;5009425;28;119395;-75
2024/01/03 05:40:28;;;;;;;5.22;0.95;;;;;;;19.91;47.52;98855.09;5004591;28;96805;-75
2024/01/03 05:42:53;;;;;;;4.00;1.10;;;;;;;19.91;47.78;98864.81;5012971;28;97301;-76
2024/01/03 05:45:19;;;;;;;3.55;0.90;;;;;;;19.90;47.63;98856.03;5014091;28;118061;-75
2024/01/03 05:47:44;;;;;;;2.40;0.77;;;;;;;19.90;47.59;98850.72;5021831;27;96876;-75
2024/01/03 05:50:10;;;;;;;2.83;0.90;;;;;;;19.91;47.41;98846.28;4993177;28;126736;-75
2024/01/03 05:52:36;;;;;;;2.83;0.75;;;;;;;19.90;47.73;98853.38;5005882;27;97883;-76
2024/01/03 05:55:02;;;;;;;3.05;0.70;;;;;;;19.91;47.90;98856.88;5011655;28;97308;-75
2024/01/03 05:57:28;;;;;;;2.88;0.75;;;;;;;19.93;47.63;98855.84;4997828;28;96901;-75
2024/01/03 05:59:53;;;;;;;2.08;0.60;;;;;;;19.92;47.55;98851.50;5004261;28;97384;-75
2024/01/03 06:02:19;;;;;;;2.70;0.90;;;;;;;19.94;47.68;98859.34;5007575;28;99429;-75
2024/01/03 06:04:46;;;;;;;3.35;1.00;;;;;;;19.93;47.72;98847.91;5011205;28;96944;-75
2024/01/03 06:07:12;;;;;;;2.70;0.70;;;;;;;19.93;47.63;98855.00;5009385;28;96830;-76
2024/01/03 06:09:37;;;;;;;3.28;0.68;;;;;;;19.93;47.64;98857.66;5010273;28;97281;-75
2024/01/03 06:12:03;;;;;;;2.47;0.70;;;;;;;19.91;47.63;98859.50;5007166;27;97380;-75
2024/01/03 06:14:28;;;;;;;1.90;0.85;;;;;;;19.91;47.60;98856.88;5004315;28;97110;-75
2024/01/03 06:16:53;;;;;;;3.15;0.70;;;;;;;19.90;47.71;98856.03;5006205;28;111562;-75
2024/01/03 06:19:19;;;;;;;2.65;0.77;;;;;;;19.91;47.66;98859.50;5006994;28;127456;-75
2024/01/03 06:21:44;;;;;;;2.72;0.80;;;;;;;19.89;47.49;98856.97;5006637;28;97211;-75
2024/01/03 06:24:09;;;;;;;2.75;1.00;;;;;;;19.90;47.53;98856.03;4990743;28;117238;-75
2024/01/03 06:26:35;;;;;;;4.57;0.90;;;;;;;19.90;47.86;98866.59;5005837;28;109428;-75
2024/01/03 06:29:01;;;;;;;2.63;0.75;;;;;;;19.89;47.69;98854.34;4991236;28;97767;-75
2024/01/03 06:31:26;;;;;;;3.92;0.90;;;;;;;19.91;47.69;98856.88;5010889;28;97916;-75
2024/01/03 06:33:52;;;;;;;2.28;0.90;;;;;;;19.90;47.79;98869.25;5005682;28;97284;-75
2024/01/03 06:36:17;;;;;;;3.17;0.70;;;;;;;19.90;47.61;98869.25;5024779;28;96933;-75
2024/01/03 06:38:42;;;;;;;2.33;0.85;;;;;;;19.92;47.61;98879.75;5019273;28;97515;-75
2024/01/03 06:41:09;;;;;;;2.95;0.88;;;;;;;19.91;47.65;98864.81;5002719;28;97584;-75
2024/01/03 06:43:34;;;;;;;2.25;0.80;;;;;;;19.90;47.81;98877.19;5007566;28;96674;-75
2024/01/03 06:46:00;;;;;;;3.85;0.70;;;;;;;19.89;47.69;98878.16;5004739;28;98446;-75
2024/01/03 06:48:25;;;;;;;2.78;0.65;;;;;;;19.90;47.51;98877.19;5003754;28;127539;-75
2024/01/03 06:50:51;;;;;;;2.22;0.70;;;;;;;19.91;47.46;98880.69;5008629;28;97236;-75
2024/01/03 06:53:16;;;;;;;1.55;0.50;;;;;;;19.91;47.65;98884.19;5007497;28;97029;-75
2024/01/03 06:55:41;;;;;;;3.85;0.90;;;;;;;19.91;47.44;98878.03;5002858;28;101732;-75
2024/01/03 06:58:07;;;;;;;1.55;0.70;;;;;;;19.90;47.49;98876.34;4998549;28;126727;-75
2024/01/03 07:00:32;;;;;;;2.83;0.65;;;;;;;19.90;47.40;98869.25;5003570;28;97264;-75
2024/01/03 07:02:57;;;;;;;2.45;0.70;;;;;;;19.90;47.80;98890.41;5006267;28;104665;-75
2024/01/03 07:05:23;;;;;;;2.40;0.70;;;;;;;19.87;47.57;98887.09;4997614;28;97368;-75
2024/01/03 07:07:48;;;;;;;2.17;0.88;;;;;;;19.88;47.68;98892.31;5007815;28;103646;-75
2024/01/03 07:10:14;;;;;;;2.55;0.60;;;;;;;19.91;47.75;98888.63;5002685;28;96958;-75
2024/01/03 07:12:39;;;;;;;2.65;0.70;;;;;;;19.89;47.48;98899.31;5009238;28;96841;-75
2024/01/03 07:15:06;;;;;;;2.83;0.77;;;;;;;19.88;47.82;98892.31;5008105;28;116939;-75
2024/01/03 07:17:31;;;;;;;2.45;0.90;;;;;;;19.88;47.78;98892.31;5003198;28;97786;-75
2024/01/03 07:19:57;;;;;;;2.42;1.02;;;;;;;19.87;47.84;98895.88;5008291;28;97276;-75
2024/01/03 07:22:23;;;;;;;2.05;0.60;;;;;;;19.89;47.46;98886.09;5006758;28;97125;-75
2024/01/03 07:24:48;;;;;;;2.92;0.63;;;;;;;19.90;47.75;98884.28;5010360;28;96845;-75
2024/01/03 07:27:15;;;;;;;1.48;0.40;;;;;;;19.90;47.77;98881.63;4989622;28;97246;-75
2024/01/03 07:29:41;;;;;;;1.88;0.80;;;;;;;19.89;47.68;98880.78;5004031;28;97744;-75
2024/01/03 07:32:07;;;;;;;3.70;1.02;;;;;;;19.88;47.54;98902.88;5006867;28;98976;-75
2024/01/03 07:34:32;;;;;;;2.30;0.70;;;;;;;19.90;47.76;98900.16;5009498;28;97388;-75
2024/01/03 07:36:58;;;;;;;2.83;0.50;;;;;;;19.88;47.67;98908.19;5010039;28;97402;-75
2024/01/03 07:39:23;;;;;;;1.63;0.70;;;;;;;19.87;47.82;98916.19;5011988;28;97152;-75
2024/01/03 07:41:49;;;;;;;2.25;0.77;;;;;;;19.89;47.60;98911.66;5011366;28;97420;-74
2024/01/03 07:44:16;;;;;;;2.70;0.70;;;;;;;19.89;47.73;98914.31;5009658;28;97057;-75
2024/01/03 07:46:42;;;;;;;3.15;0.63;;;;;;;19.89;47.49;98911.66;5009723;28;97176;-75
2024/01/03 07:49:07;;;;;;;1.77;0.55;;;;;;;19.90;47.74;98914.22;5010117;28;96661;-75
2024/01/03 07:51:38;;;;;;;2.03;0.60;;;;;;;19.88;47.54;98920.56;5003941;28;97239;-75
2024/01/03 07:54:07;;;;;;;2.95;0.68;;;;;;;19.87;47.49;98917.03;5006380;28;96968;-75
2024/01/03 07:56:33;;;;;;;2.13;0.80;;;;;;;19.87;47.56;98919.69;5008105;28;96832;-75
2024/01/03 07:58:59;;;;;;;3.72;0.73;;;;;;;19.91;47.62;98923.00;4989127;28;98257;-75
2024/01/03 08:01:24;;;;;;;1.67;0.68;;;;;;;19.90;47.72;98931.91;5004666;28;96630;-75
2024/01/03 08:03:50;;;;;;;2.42;0.63;;;;;;;19.89;47.41;98931.06;5006918;28;97291;-75
2024/01/03 08:06:20;;;;;;;2.67;0.70;;;;;;;19.91;47.47;98939.75;5010517;28;98074;-75
2024/01/03 08:08:45;;;;;;;2.83;0.73;;;;;;;19.89;47.57;98933.72;5012503;28;97875;-75
2024/01/03 08:11:11;;;;;;;1.25;0.63;;;;;;;19.90;47.63;98934.56;5015947;28;97372;-74
2024/01/03 08:13:37;;;;;;;2.22;0.70;;;;;;;19.89;47.63;98931.06;5029138;28;97223;-74
2024/01/03 08:16:04;;;;;;;2.92;0.73;;;;;;;19.89;47.53;98952.22;5010301;27;98129;-75
2024/01/03 08:18:29;;;;;;;2.20;0.55;;;;;;;19.90;47.72;98945.13;4991090;28;99447;-76
2024/01/03 08:20:54;;;;;;;1.67;0.73;;;;;;;19.91;47.66;98949.47;5002431;28;117143;-76
2024/01/03 08:23:20;;;;;;;1.58;0.50;;;;;;;19.91;47.52;98949.47;5000905;28;97042;-76
2024/01/03 08:25:45;;;;;;;2.85;0.65;;;;;;;19.90;47.45;98948.63;4987248;28;124619;-76
2024/01/03 08:28:11;;;;;;;2.10;0.60;;;;;;;19.90;47.48;98947.78;5020945;28;126456;-76
2024/01/03 08:30:36;;;;;;;2.15;0.55;;;;;;;19.89;47.39;98949.59;5016284;28;96858;-76
2024/01/03 08:33:02;;;;;;;1.30;0.40;;;;;;;19.90;47.34;98945.97;5019242;28;97247;-76
2024/01/03 08:35:27;;;;;;;2.42;0.43;;;;;;;19.90;47.47;98948.63;5010597;27;96847;-76
2024/01/03 08:37:53;;;;;;;2.03;0.65;;;;;;;19.92;47.35;98951.19;5017099;28;97148;-76
2024/01/03 08:40:18;;;;;;;1.83;0.60;;;;;;;19.92;47.32;98948.53;4998377;28;96774;-76
2024/01/03 08:42:44;;;;;;;1.85;0.47;;;;;;;19.93;47.64;98950.25;4999492;28;97148;-76
2024/01/03 08:45:09;;;;;;;1.75;0.60;;;;;;;19.89;47.64;98954.88;5011122;27;98644;-76
2024/01/03 08:47:34;;;;;;;1.85;0.75;;;;;;;19.89;47.48;98960.16;5015576;28;97205;-76
2024/01/03 08:50:00;;;;;;;1.23;0.50;;;;;;;19.90;47.62;98961.00;5009102;28;97261;-76
2024/01/03 08:52:25;;;;;;;1.52;0.60;;;;;;;19.90;47.36;98963.66;5005383;28;96828;-76
2024/01/03 08:54:50;;;;;;;1.73;0.60;;;;;;;19.89;47.34;98969.88;5013943;27;127245;-76
2024/01/03 08:57:16;;;;;;;1.42;0.55;;;;;;;19.87;47.85;98977.88;4994878;28;97158;-76
2024/01/03 08:59:42;;;;;;;1.90;0.60;;;;;;;19.88;47.36;98966.38;5008495;28;104525;-75
2024/01/03 09:02:10;;;;;;;1.30;0.63;;;;;;;19.89;47.50;98976.03;5017538;28;97989;-77
2024/01/03 09:04:36;;;;;;;1.55;0.50;;;;;;;19.88;47.47;98969.03;5027887;27;96960;-76
2024/01/03 09:07:01;;;;;;;1.55;0.50;;;;;;;19.88;47.34;98961.09;4993811;28;97354;-76
2024/01/03 09:09:26;;;;;;;1.92;0.70;;;;;;;19.88;47.51;98965.53;4988918;28;97683;-76
2024/01/03 09:11:52;;;;;;;1.48;0.30;;;;;;;19.88;47.66;98966.38;4989637;28;117040;-76
2024/01/03 09:14:17;;;;;;;2.38;0.70;;;;;;;19.89;47.50;98968.09;5009101;28;97329;-76
2024/01/03 09:16:43;;;;;;;0.88;0.40;;;;;;;19.89;47.77;98973.41;5002221;28;97191;-76
2024/01/03 09:19:08;;;;;;;1.42;0.45;;;;;;;19.89;47.28;98975.16;5008917;28;117022;-76
2024/01/03 09:21:34;;;;;;;1.33;0.30;;;;;;;19.87;47.49;98982.34;5010005;28;116543;-76
2024/01/03 09:24:00;;;;;;;1.45;0.55;;;;;;;19.90;47.60;98971.59;5009251;27;98277;-76
2024/01/03 09:26:25;;;;;;;1.77;0.63;;;;;;;19.90;47.75;98983.03;5008024;28;97275;-76
2024/01/03 09:28:52;;;;;;;1.58;0.60;;;;;;;19.90;47.42;98975.09;5009859;28;97288;-77
2024/01/03 09:31:17;;;;;;;3.47;0.50;;;;;;;19.90;47.54;98983.03;5010038;28;96711;-76
2024/01/03 09:33:43;;;;;;;3.55;0.70;;;;;;;19.89;47.50;98986.63;5007652;28;97446;-76
2024/01/03 09:36:18;;;;;;;1.65;0.50;;;;;;;19.90;47.77;98990.13;5008777;28;97780;-76
2024/01/03 09:38:44;;;;;;;2.15;0.52;;;;;;;19.88;47.50;98984.06;5009731;28;96717;-76
2024/01/03 09:41:12;;;;;;;2.70;0.50;;;;;;;19.89;47.55;98988.38;5008685;28;96832;-76
2024/01/03 09:43:41;;;;;;;2.67;0.70;;;;;;;19.88;47.81;98987.53;4991305;28;100302;-76
2024/01/03 09:46:06;;;;;;;2.65;0.60;;;;;;;19.91;47.63;98991.81;5006227;28;97292;-76
2024/01/03 09:48:31;;;;;;;1.48;0.47;;;;;;;19.91;47.55;98997.09;4998246;28;97232;-76
2024/01/03 09:50:58;;;;;;;2.78;0.60;;;;;;;19.86;47.59;99000.00;5009117;28;98680;-76
2024/01/03 09:53:25;;;;;;;2.67;0.57;;;;;;;19.87;47.62;98991.13;5009555;28;96690;-77
2024/01/03 09:55:51;;;;;;;1.67;0.50;;;;;;;19.89;47.66;98993.69;5018882;28;97175;-77
2024/01/03 09:58:17;;;;;;;1.02;0.45;;;;;;;19.90;47.36;98990.13;5009210;28;97056;-76
2024/01/03 10:00:42;;;;;;;1.88;0.52;;;;;;;19.92;47.36;98991.72;5001792;28;100394;-76
2024/01/03 10:03:08;;;;;;;1.55;0.50;;;;;;;19.95;47.43;98998.66;4989810;28;97490;-74
2024/01/03 10:05:34;;;;;;;2.92;0.70;;;;;;;19.96;47.57;98995.06;4988760;28;97176;-76
2024/01/03 10:08:00;;;;;;;1.52;0.52;;;;;;;19.96;47.46;98995.06;5004310;28;97084;-75
2024/01/03 10:10:33;;;;;;;1.30;0.60;;;;;;;20.02;47.02;99007.09;4990310;28;96790;-75
2024/01/03 10:13:18;;;;;;;1.63;0.50;;;;;;;20.02;47.06;99002.66;4999584;28;96981;-74
2024/01/03 10:15:44;;;;;;;2.00;0.40;;;;;;;19.99;47.35;99010.75;4988282;28;98412;-75
2024/01/03 10:18:11;;;;;;;2.28;0.55;;;;;;;19.95;47.28;99002.13;5009232;28;96696;-75
2024/01/03 10:20:37;;;;;;;1.80;0.52;;;;;;;19.93;47.78;99009.31;5005540;28;97503;-74
2024/01/03 10:23:19;;;;;;;2.08;0.75;;;;;;;20.02;47.97;98999.13;5003113;28;99423;-75
2024/01/03 10:25:45;;;;;;;1.65;0.63;;;;;;;19.97;47.79;99005.56;5001960;28;98848;-76
2024/01/03 10:28:12;;;;;;;1.70;0.52;;;;;;;20.00;47.85;99003.66;5002296;28;97169;-75
2024/01/03 10:30:38;;;;;;;2.67;0.60;;;;;;;19.96;47.88;99009.16;5008225;28;97168;-76
2024/01/03 10:33:05;;;;;;;1.42;0.68;;;;;;;19.98;47.79;99014.34;5008110;28;99857;-75
2024/01/03 10:35:35;;;;;;;2.60;0.65;;;;;;;19.95;47.86;99009.25;4993007;28;97125;-75
2024/01/03 10:38:02;;;;;;;2.40;0.75;;;;;;;19.94;48.04;99015.44;5007171;28;96678;-75
2024/01/03 10:40:29;;;;;;;3.15;0.73;;;;;;;19.95;47.85;99009.25;5012574;28;97430;-75
2024/01/03 10:42:55;;;;;;;2.78;1.10;;;;;;;19.90;48.06;99011.28;5006027;28;97433;-75
2024/01/03 10:45:21;;;;;;;2.78;0.70;;;;;;;19.91;47.76;99012.97;5014190;28;97388;-75
2024/01/03 10:47:48;;;;;;;4.97;0.82;;;;;;;19.93;47.77;99011.13;4996969;28;97048;-75
2024/01/03 10:50:14;;;;;;;3.17;0.80;;;;;;;19.98;47.56;99011.69;5005663;28;96743;-75
2024/01/03 10:52:43;;;;;;;2.67;0.68;;;;;;;19.91;47.82;99018.25;5002326;28;97658;-75
2024/01/03 10:55:12;;;;;;;2.22;0.70;;;;;;;20.00;47.74;99020.44;4999406;28;97202;-75
2024/01/03 10:57:43;;;;;;;2.45;0.60;;;;;;;20.00;47.45;99023.06;5005317;28;97483;-75
2024/01/03 11:00:17;;;;;;;2.72;0.88;;;;;;;20.01;47.69;99023.91;5002406;28;97067;-75
2024/01/03 11:02:53;;;;;;;2.35;0.77;;;;;;;20.03;47.73;99029.97;4991362;28;99311;-74
2024/01/03 11:05:32;;;;;;;3.25;0.85;;;;;;;20.02;47.34;99028.25;4993584;28;97545;-75
2024/01/03 11:08:06;;;;;;;3.03;0.90;;;;;;;20.01;47.62;99022.13;5005506;28;96797;-75
2024/01/03 11:10:54;;;;;;;4.50;0.98;;;;;;;19.96;47.83;99030.31;5000344;28;97130;-75
2024/01/03 11:13:33;;;;;;;3.17;0.80;;;;;;;19.97;47.61;99039.09;5006902;28;97720;-75
2024/01/03 11:16:01;;;;;;;3.30;0.70;;;;;;;19.95;47.42;99033.06;5029676;27;97790;-75
2024/01/03 11:18:41;;;;;;;3.85;0.80;;;;;;;19.94;47.74;99018.09;5007770;28;97198;-76
2024/01/03 11:21:27;;;;;;;4.20;1.02;;;;;;;19.98;47.41;99022.28;5007483;28;96873;-76
2024/01/03 11:23:58;;;;;;;3.85;0.88;;;;;;;19.96;47.70;99011.81;4992478;28;98038;-77
2024/01/03 11:26:51;;;;;;;2.00;0.70;;;;;;;19.93;47.65;99016.41;5016951;28;96761;-77
2024/01/03 11:29:35;;;;;;;3.70;1.10;;;;;;;19.86;47.96;99013.25;5004878;28;97889;-76